sensor_id;sensor_type;location;lat;lon;timestamp;P1;durP1;ratioP1;P2;durP2;ratioP2
38034;SDS011;23841;48.524;1.342;2022-09-12T00:00:42;1.83;;;1.50;;
38034;SDS011;23841;48.524;1.342;2022-09-12T00:03:08;1.60;;;0.80;;
38034;SDS011;23841;48.524;1.342;2022-09-12T00:05:35;1.52;;;0.82;;
38034;SDS011;23841;48.524;1.342;2022-09-12T00:08:05;1.90;;;1.00;;
38034;SDS011;23841;48.524;1.342;2022-09-12T00:10:30;1.42;;;0.80;;
38034;SDS011;23841;48.524;1.342;2022-09-12T00:12:56;2.78;;;1.10;;
38034;SDS011;23841;48.524;1.342;2022-09-12T00:15:21;1.83;;;0.70;;
38034;SDS011;23841;48.524;1.342;2022-09-12T00:17:47;3.17;;;0.90;;
38034;SDS011;23841;48.524;1.342;2022-09-12T00:20:12;1.02;;;0.90;;
38034;SDS011;23841;48.524;1.342;2022-09-12T00:22:38;0.77;;;0.60;;
38034;SDS011;23841;48.524;1.342;2022-09-12T00:25:03;1.77;;;0.80;;
38034;SDS011;23841;48.524;1.342;2022-09-12T00:27:29;1.50;;;0.88;;
38034;SDS011;23841;48.524;1.342;2022-09-12T00:29:55;1.50;;;0.70;;
38034;SDS011;23841;48.524;1.342;2022-09-12T00:32:20;1.05;;;0.68;;
38034;SDS011;23841;48.524;1.342;2022-09-12T00:34:46;2.38;;;0.70;;
38034;SDS011;23841;48.524;1.342;2022-09-12T00:37:11;2.13;;;1.05;;
38034;SDS011;23841;48.524;1.342;2022-09-12T00:39:37;2.10;;;1.00;;
38034;SDS011;23841;48.524;1.342;2022-09-12T00:42:03;1.67;;;0.90;;
38034;SDS011;23841;48.524;1.342;2022-09-12T00:50:06;2.17;;;1.02;;
38034;SDS011;23841;48.524;1.342;2022-09-12T00:52:38;2.00;;;1.02;;
38034;SDS011;23841;48.524;1.342;2022-09-12T00:55:23;2.20;;;0.98;;
38034;SDS011;23841;48.524;1.342;2022-09-12T01:00:24;1.50;;;1.08;;
38034;SDS011;23841;48.524;1.342;2022-09-12T01:02:58;1.70;;;0.90;;
38034;SDS011;23841;48.524;1.342;2022-09-12T01:05:26;1.17;;;0.80;;
38034;SDS011;23841;48.524;1.342;2022-09-12T01:07:55;0.95;;;0.75;;
38034;SDS011;23841;48.524;1.342;2022-09-12T01:10:21;1.15;;;0.85;;
38034;SDS011;23841;48.524;1.342;2022-09-12T01:12:48;3.47;;;0.80;;
38034;SDS011;23841;48.524;1.342;2022-09-12T01:15:13;3.20;;;1.05;;
38034;SDS011;23841;48.524;1.342;2022-09-12T01:33:48;1.38;;;0.80;;
38034;SDS011;23841;48.524;1.342;2022-09-12T01:40:01;2.47;;;1.02;;
38034;SDS011;23841;48.524;1.342;2022-09-12T01:45:27;3.90;;;1.35;;
38034;SDS011;23841;48.524;1.342;2022-09-12T01:48:05;2.53;;;1.05;;
38034;SDS011;23841;48.524;1.342;2022-09-12T01:53:53;1.60;;;1.08;;
38034;SDS011;23841;48.524;1.342;2022-09-12T01:56:26;1.45;;;0.95;;
38034;SDS011;23841;48.524;1.342;2022-09-12T01:59:07;2.88;;;1.20;;
38034;SDS011;23841;48.524;1.342;2022-09-12T02:01:34;3.13;;;1.30;;
38034;SDS011;23841;48.524;1.342;2022-09-12T02:04:19;2.65;;;1.25;;
38034;SDS011;23841;48.524;1.342;2022-09-12T02:06:49;2.63;;;1.05;;
38034;SDS011;23841;48.524;1.342;2022-09-12T02:09:28;2.13;;;1.10;;
38034;SDS011;23841;48.524;1.342;2022-09-12T02:12:11;2.05;;;1.02;;
38034;SDS011;23841;48.524;1.342;2022-09-12T02:14:41;1.80;;;1.17;;
38034;SDS011;23841;48.524;1.342;2022-09-12T02:17:14;2.20;;;1.17;;
38034;SDS011;23841;48.524;1.342;2022-09-12T02:19:45;1.88;;;1.00;;
38034;SDS011;23841;48.524;1.342;2022-09-12T02:22:17;2.97;;;1.38;;
38034;SDS011;23841;48.524;1.342;2022-09-12T02:24:47;2.30;;;1.35;;
38034;SDS011;23841;48.524;1.342;2022-09-12T02:28:20;2.15;;;1.05;;
38034;SDS011;23841;48.524;1.342;2022-09-12T02:30:25;1.83;;;1.25;;
38034;SDS011;23841;48.524;1.342;2022-09-12T02:33:00;1.80;;;1.02;;
38034;SDS011;23841;48.524;1.342;2022-09-12T02:38:48;2.07;;;1.10;;
38034;SDS011;23841;48.524;1.342;2022-09-12T02:41:16;1.50;;;1.00;;
38034;SDS011;23841;48.524;1.342;2022-09-12T02:43:44;3.40;;;1.60;;
38034;SDS011;23841;48.524;1.342;2022-09-12T02:46:30;2.50;;;1.30;;
38034;SDS011;23841;48.524;1.342;2022-09-12T02:49:12;3.00;;;1.17;;
38034;SDS011;23841;48.524;1.342;2022-09-12T02:51:38;2.20;;;1.27;;
38034;SDS011;23841;48.524;1.342;2022-09-12T02:54:04;2.58;;;1.50;;
38034;SDS011;23841;48.524;1.342;2022-09-12T02:56:31;4.28;;;1.45;;
38034;SDS011;23841;48.524;1.342;2022-09-12T02:59:01;2.17;;;1.25;;
38034;SDS011;23841;48.524;1.342;2022-09-12T03:07:23;1.60;;;1.10;;
38034;SDS011;23841;48.524;1.342;2022-09-12T03:14:50;2.35;;;1.50;;
38034;SDS011;23841;48.524;1.342;2022-09-12T03:20:20;2.40;;;1.30;;
38034;SDS011;23841;48.524;1.342;2022-09-12T03:22:55;3.38;;;1.40;;
38034;SDS011;23841;48.524;1.342;2022-09-12T03:30:23;1.83;;;1.20;;
38034;SDS011;23841;48.524;1.342;2022-09-12T03:32:49;1.73;;;1.00;;
38034;SDS011;23841;48.524;1.342;2022-09-12T03:35:18;1.20;;;0.90;;
38034;SDS011;23841;48.524;1.342;2022-09-12T03:37:45;2.10;;;1.20;;
38034;SDS011;23841;48.524;1.342;2022-09-12T03:40:12;1.30;;;0.82;;
38034;SDS011;23841;48.524;1.342;2022-09-12T03:42:39;1.80;;;1.20;;
38034;SDS011;23841;48.524;1.342;2022-09-12T03:45:05;1.35;;;1.00;;
38034;SDS011;23841;48.524;1.342;2022-09-12T03:47:31;1.92;;;1.08;;
38034;SDS011;23841;48.524;1.342;2022-09-12T03:49:57;3.63;;;0.98;;
38034;SDS011;23841;48.524;1.342;2022-09-12T03:52:22;2.40;;;1.42;;
38034;SDS011;23841;48.524;1.342;2022-09-12T03:54:48;1.40;;;0.95;;
38034;SDS011;23841;48.524;1.342;2022-09-12T03:57:14;1.25;;;0.90;;
38034;SDS011;23841;48.524;1.342;2022-09-12T03:59:39;2.15;;;1.25;;
38034;SDS011;23841;48.524;1.342;2022-09-12T04:02:05;1.83;;;1.08;;
38034;SDS011;23841;48.524;1.342;2022-09-12T04:04:30;1.15;;;0.90;;
38034;SDS011;23841;48.524;1.342;2022-09-12T04:06:56;3.00;;;1.55;;
38034;SDS011;23841;48.524;1.342;2022-09-12T04:09:21;1.63;;;1.10;;
38034;SDS011;23841;48.524;1.342;2022-09-12T04:11:47;1.42;;;1.10;;
38034;SDS011;23841;48.524;1.342;2022-09-12T04:14:12;2.67;;;1.33;;
38034;SDS011;23841;48.524;1.342;2022-09-12T04:16:38;1.92;;;1.00;;
38034;SDS011;23841;48.524;1.342;2022-09-12T04:19:03;2.67;;;1.17;;
38034;SDS011;23841;48.524;1.342;2022-09-12T04:21:29;2.60;;;1.55;;
38034;SDS011;23841;48.524;1.342;2022-09-12T04:23:54;2.50;;;1.25;;
38034;SDS011;23841;48.524;1.342;2022-09-12T04:26:20;2.60;;;1.02;;
38034;SDS011;23841;48.524;1.342;2022-09-12T04:28:46;2.85;;;1.10;;
38034;SDS011;23841;48.524;1.342;2022-09-12T04:31:16;2.17;;;0.90;;
38034;SDS011;23841;48.524;1.342;2022-09-12T04:33:44;1.58;;;1.15;;
38034;SDS011;23841;48.524;1.342;2022-09-12T04:36:10;2.85;;;1.65;;
38034;SDS011;23841;48.524;1.342;2022-09-12T04:38:40;2.67;;;1.23;;
38034;SDS011;23841;48.524;1.342;2022-09-12T04:41:11;1.75;;;1.25;;
38034;SDS011;23841;48.524;1.342;2022-09-12T04:43:41;2.95;;;1.55;;
38034;SDS011;23841;48.524;1.342;2022-09-12T04:46:08;3.72;;;1.58;;
38034;SDS011;23841;48.524;1.342;2022-09-12T04:48:35;1.48;;;0.82;;
38034;SDS011;23841;48.524;1.342;2022-09-12T04:53:33;1.85;;;1.08;;
38034;SDS011;23841;48.524;1.342;2022-09-12T04:56:03;2.38;;;1.20;;
38034;SDS011;23841;48.524;1.342;2022-09-12T04:58:30;1.27;;;0.82;;
38034;SDS011;23841;48.524;1.342;2022-09-12T05:01:02;1.63;;;0.93;;
38034;SDS011;23841;48.524;1.342;2022-09-12T05:03:29;2.80;;;1.40;;
38034;SDS011;23841;48.524;1.342;2022-09-12T05:05:55;1.83;;;1.00;;
38034;SDS011;23841;48.524;1.342;2022-09-12T05:08:20;1.90;;;1.10;;
38034;SDS011;23841;48.524;1.342;2022-09-12T05:10:46;2.17;;;1.00;;
38034;SDS011;23841;48.524;1.342;2022-09-12T05:13:11;1.55;;;1.00;;
38034;SDS011;23841;48.524;1.342;2022-09-12T05:15:36;2.80;;;1.52;;
38034;SDS011;23841;48.524;1.342;2022-09-12T05:18:02;1.27;;;0.80;;
38034;SDS011;23841;48.524;1.342;2022-09-12T05:20:27;0.93;;;0.70;;
38034;SDS011;23841;48.524;1.342;2022-09-12T05:22:52;1.35;;;0.88;;
38034;SDS011;23841;48.524;1.342;2022-09-12T05:25:19;1.23;;;0.75;;
38034;SDS011;23841;48.524;1.342;2022-09-12T05:27:45;1.55;;;0.90;;
38034;SDS011;23841;48.524;1.342;2022-09-12T05:30:10;1.60;;;0.90;;
38034;SDS011;23841;48.524;1.342;2022-09-12T05:32:36;1.13;;;0.80;;
38034;SDS011;23841;48.524;1.342;2022-09-12T05:35:01;1.17;;;1.00;;
38034;SDS011;23841;48.524;1.342;2022-09-12T05:37:27;1.35;;;0.80;;
38034;SDS011;23841;48.524;1.342;2022-09-12T05:39:52;0.85;;;0.60;;
38034;SDS011;23841;48.524;1.342;2022-09-12T05:42:18;1.20;;;0.63;;
38034;SDS011;23841;48.524;1.342;2022-09-12T05:44:43;1.92;;;1.10;;
38034;SDS011;23841;48.524;1.342;2022-09-12T05:47:10;1.08;;;0.73;;
38034;SDS011;23841;48.524;1.342;2022-09-12T05:49:36;1.15;;;0.82;;
38034;SDS011;23841;48.524;1.342;2022-09-12T05:52:02;2.60;;;1.30;;
38034;SDS011;23841;48.524;1.342;2022-09-12T05:54:27;1.42;;;0.80;;
38034;SDS011;23841;48.524;1.342;2022-09-12T05:56:53;0.88;;;0.75;;
38034;SDS011;23841;48.524;1.342;2022-09-12T05:59:19;1.38;;;0.90;;
38034;SDS011;23841;48.524;1.342;2022-09-12T06:01:46;1.40;;;0.57;;
38034;SDS011;23841;48.524;1.342;2022-09-12T06:04:12;1.60;;;1.10;;
38034;SDS011;23841;48.524;1.342;2022-09-12T06:06:38;1.58;;;0.98;;
38034;SDS011;23841;48.524;1.342;2022-09-12T06:09:12;1.20;;;0.70;;
38034;SDS011;23841;48.524;1.342;2022-09-12T06:11:38;1.45;;;1.05;;
38034;SDS011;23841;48.524;1.342;2022-09-12T06:14:07;1.80;;;0.98;;
38034;SDS011;23841;48.524;1.342;2022-09-12T06:16:34;1.13;;;0.80;;
38034;SDS011;23841;48.524;1.342;2022-09-12T06:19:02;1.00;;;0.80;;
38034;SDS011;23841;48.524;1.342;2022-09-12T06:21:30;1.58;;;0.90;;
38034;SDS011;23841;48.524;1.342;2022-09-12T06:23:56;2.17;;;1.15;;
38034;SDS011;23841;48.524;1.342;2022-09-12T06:26:25;1.70;;;1.20;;
38034;SDS011;23841;48.524;1.342;2022-09-12T06:28:52;1.15;;;0.77;;
38034;SDS011;23841;48.524;1.342;2022-09-12T06:31:19;1.55;;;0.85;;
38034;SDS011;23841;48.524;1.342;2022-09-12T06:33:48;1.13;;;0.70;;
38034;SDS011;23841;48.524;1.342;2022-09-12T06:36:18;1.15;;;0.80;;
38034;SDS011;23841;48.524;1.342;2022-09-12T06:38:46;2.40;;;1.13;;
38034;SDS011;23841;48.524;1.342;2022-09-12T06:41:13;6.13;;;1.10;;
38034;SDS011;23841;48.524;1.342;2022-09-12T06:43:39;2.80;;;0.93;;
38034;SDS011;23841;48.524;1.342;2022-09-12T06:46:05;2.00;;;1.00;;
38034;SDS011;23841;48.524;1.342;2022-09-12T06:48:32;1.60;;;0.90;;
38034;SDS011;23841;48.524;1.342;2022-09-12T06:51:04;1.73;;;0.95;;
38034;SDS011;23841;48.524;1.342;2022-09-12T06:53:31;1.50;;;1.10;;
38034;SDS011;23841;48.524;1.342;2022-09-12T06:56:00;2.35;;;0.90;;
38034;SDS011;23841;48.524;1.342;2022-09-12T06:58:28;2.20;;;1.10;;
38034;SDS011;23841;48.524;1.342;2022-09-12T07:03:53;2.15;;;1.30;;
38034;SDS011;23841;48.524;1.342;2022-09-12T07:06:21;1.60;;;0.98;;
38034;SDS011;23841;48.524;1.342;2022-09-12T07:08:48;3.03;;;1.45;;
38034;SDS011;23841;48.524;1.342;2022-09-12T07:13:44;3.15;;;1.20;;
38034;SDS011;23841;48.524;1.342;2022-09-12T07:16:11;2.75;;;1.23;;
38034;SDS011;23841;48.524;1.342;2022-09-12T07:18:38;2.03;;;1.30;;
38034;SDS011;23841;48.524;1.342;2022-09-12T07:21:05;4.32;;;1.40;;
38034;SDS011;23841;48.524;1.342;2022-09-12T07:23:33;2.15;;;1.38;;
38034;SDS011;23841;48.524;1.342;2022-09-12T07:25:59;3.53;;;1.65;;
38034;SDS011;23841;48.524;1.342;2022-09-12T07:28:25;2.88;;;1.65;;
38034;SDS011;23841;48.524;1.342;2022-09-12T07:30:52;2.65;;;1.55;;
38034;SDS011;23841;48.524;1.342;2022-09-12T07:33:19;2.03;;;1.35;;
38034;SDS011;23841;48.524;1.342;2022-09-12T07:35:45;2.70;;;1.50;;
38034;SDS011;23841;48.524;1.342;2022-09-12T07:38:10;2.88;;;1.25;;
38034;SDS011;23841;48.524;1.342;2022-09-12T07:40:35;3.55;;;1.80;;
38034;SDS011;23841;48.524;1.342;2022-09-12T07:43:01;5.07;;;1.92;;
38034;SDS011;23841;48.524;1.342;2022-09-12T07:45:26;2.55;;;1.42;;
38034;SDS011;23841;48.524;1.342;2022-09-12T07:47:52;2.70;;;1.63;;
38034;SDS011;23841;48.524;1.342;2022-09-12T07:50:18;3.45;;;1.50;;
38034;SDS011;23841;48.524;1.342;2022-09-12T07:52:44;2.70;;;1.50;;
38034;SDS011;23841;48.524;1.342;2022-09-12T07:55:09;3.05;;;1.50;;
38034;SDS011;23841;48.524;1.342;2022-09-12T07:57:35;3.25;;;1.80;;
38034;SDS011;23841;48.524;1.342;2022-09-12T08:00:00;2.72;;;1.58;;
38034;SDS011;23841;48.524;1.342;2022-09-12T08:02:26;3.28;;;1.50;;
38034;SDS011;23841;48.524;1.342;2022-09-12T08:04:51;2.60;;;1.52;;
38034;SDS011;23841;48.524;1.342;2022-09-12T08:07:17;3.15;;;1.50;;
38034;SDS011;23841;48.524;1.342;2022-09-12T08:09:43;2.53;;;1.73;;
38034;SDS011;23841;48.524;1.342;2022-09-12T08:12:08;2.15;;;1.38;;
38034;SDS011;23841;48.524;1.342;2022-09-12T08:14:35;2.45;;;1.52;;
38034;SDS011;23841;48.524;1.342;2022-09-12T08:17:00;3.33;;;1.45;;
38034;SDS011;23841;48.524;1.342;2022-09-12T08:19:26;4.18;;;1.50;;
38034;SDS011;23841;48.524;1.342;2022-09-12T08:21:51;4.07;;;1.50;;
38034;SDS011;23841;48.524;1.342;2022-09-12T08:24:16;2.97;;;1.65;;
38034;SDS011;23841;48.524;1.342;2022-09-12T08:26:42;6.53;;;1.63;;
38034;SDS011;23841;48.524;1.342;2022-09-12T08:29:07;3.45;;;1.60;;
38034;SDS011;23841;48.524;1.342;2022-09-12T08:31:33;4.40;;;1.60;;
38034;SDS011;23841;48.524;1.342;2022-09-12T08:34:01;3.15;;;1.60;;
38034;SDS011;23841;48.524;1.342;2022-09-12T08:36:30;2.53;;;1.63;;
38034;SDS011;23841;48.524;1.342;2022-09-12T08:39:00;3.30;;;1.75;;
38034;SDS011;23841;48.524;1.342;2022-09-12T08:41:36;4.75;;;1.40;;
38034;SDS011;23841;48.524;1.342;2022-09-12T08:47:31;6.53;;;1.70;;
38034;SDS011;23841;48.524;1.342;2022-09-12T08:52:34;3.30;;;1.95;;
38034;SDS011;23841;48.524;1.342;2022-09-12T08:55:00;2.47;;;1.42;;
38034;SDS011;23841;48.524;1.342;2022-09-12T08:57:27;9.98;;;1.50;;
38034;SDS011;23841;48.524;1.342;2022-09-12T08:59:53;1.90;;;1.08;;
38034;SDS011;23841;48.524;1.342;2022-09-12T09:10:32;3.90;;;1.33;;
38034;SDS011;23841;48.524;1.342;2022-09-12T09:16:20;2.38;;;1.40;;
38034;SDS011;23841;48.524;1.342;2022-09-12T09:18:52;1.75;;;1.15;;
38034;SDS011;23841;48.524;1.342;2022-09-12T09:21:41;3.42;;;1.20;;
38034;SDS011;23841;48.524;1.342;2022-09-12T09:24:14;2.53;;;1.10;;
38034;SDS011;23841;48.524;1.342;2022-09-12T09:26:48;4.22;;;1.35;;
38034;SDS011;23841;48.524;1.342;2022-09-12T09:29:21;9.38;;;1.70;;
38034;SDS011;23841;48.524;1.342;2022-09-12T09:31:52;1.83;;;1.30;;
38034;SDS011;23841;48.524;1.342;2022-09-12T09:34:22;4.18;;;1.48;;
38034;SDS011;23841;48.524;1.342;2022-09-12T09:45:13;2.47;;;1.33;;
38034;SDS011;23841;48.524;1.342;2022-09-12T09:47:51;4.75;;;1.42;;
38034;SDS011;23841;48.524;1.342;2022-09-12T09:50:22;1.92;;;1.23;;
38034;SDS011;23841;48.524;1.342;2022-09-12T09:52:48;2.92;;;0.98;;
38034;SDS011;23841;48.524;1.342;2022-09-12T09:55:23;2.40;;;1.30;;
38034;SDS011;23841;48.524;1.342;2022-09-12T09:57:54;2.75;;;1.13;;
38034;SDS011;23841;48.524;1.342;2022-09-12T10:00:27;1.88;;;1.17;;
38034;SDS011;23841;48.524;1.342;2022-09-12T10:05:47;1.55;;;1.05;;
38034;SDS011;23841;48.524;1.342;2022-09-12T10:08:21;4.32;;;1.30;;
38034;SDS011;23841;48.524;1.342;2022-09-12T10:10:55;1.85;;;1.10;;
38034;SDS011;23841;48.524;1.342;2022-09-12T10:13:28;1.98;;;1.00;;
38034;SDS011;23841;48.524;1.342;2022-09-12T10:15:59;3.13;;;1.00;;
38034;SDS011;23841;48.524;1.342;2022-09-12T10:18:39;1.02;;;0.90;;
38034;SDS011;23841;48.524;1.342;2022-09-12T10:21:13;4.75;;;1.15;;
38034;SDS011;23841;48.524;1.342;2022-09-12T10:23:43;2.63;;;1.05;;
38034;SDS011;23841;48.524;1.342;2022-09-12T10:26:10;4.05;;;1.80;;
38034;SDS011;23841;48.524;1.342;2022-09-12T10:28:48;1.90;;;0.95;;
38034;SDS011;23841;48.524;1.342;2022-09-12T10:31:22;1.35;;;0.70;;
38034;SDS011;23841;48.524;1.342;2022-09-12T10:33:52;3.15;;;1.00;;
38034;SDS011;23841;48.524;1.342;2022-09-12T10:36:21;2.42;;;1.13;;
38034;SDS011;23841;48.524;1.342;2022-09-12T10:38:51;2.10;;;0.90;;
38034;SDS011;23841;48.524;1.342;2022-09-12T10:41:19;3.03;;;0.80;;
38034;SDS011;23841;48.524;1.342;2022-09-12T10:43:46;1.85;;;1.05;;
38034;SDS011;23841;48.524;1.342;2022-09-12T10:48:49;1.83;;;1.08;;
38034;SDS011;23841;48.524;1.342;2022-09-12T10:51:25;0.90;;;0.57;;
38034;SDS011;23841;48.524;1.342;2022-09-12T10:53:56;1.92;;;0.77;;
38034;SDS011;23841;48.524;1.342;2022-09-12T10:56:28;1.52;;;0.80;;
38034;SDS011;23841;48.524;1.342;2022-09-12T11:01:43;1.02;;;0.80;;
38034;SDS011;23841;48.524;1.342;2022-09-12T11:29:46;0.85;;;0.70;;
38034;SDS011;23841;48.524;1.342;2022-09-12T11:40:31;1.67;;;0.85;;
38034;SDS011;23841;48.524;1.342;2022-09-12T11:45:48;1.42;;;0.70;;
38034;SDS011;23841;48.524;1.342;2022-09-12T11:48:37;2.28;;;0.90;;
38034;SDS011;23841;48.524;1.342;2022-09-12T11:57:13;1.52;;;0.80;;
38034;SDS011;23841;48.524;1.342;2022-09-12T12:00:04;1.35;;;0.80;;
38034;SDS011;23841;48.524;1.342;2022-09-12T12:08:16;1.75;;;0.80;;
38034;SDS011;23841;48.524;1.342;2022-09-12T12:10:49;2.80;;;0.88;;
38034;SDS011;23841;48.524;1.342;2022-09-12T12:13:25;0.77;;;0.77;;
38034;SDS011;23841;48.524;1.342;2022-09-12T12:15:57;3.10;;;0.70;;
38034;SDS011;23841;48.524;1.342;2022-09-12T12:18:27;2.58;;;0.68;;
38034;SDS011;23841;48.524;1.342;2022-09-12T12:20:54;1.75;;;0.68;;
38034;SDS011;23841;48.524;1.342;2022-09-12T12:23:25;0.98;;;0.60;;
38034;SDS011;23841;48.524;1.342;2022-09-12T12:25:54;1.60;;;0.77;;
38034;SDS011;23841;48.524;1.342;2022-09-12T12:28:55;1.50;;;0.88;;
38034;SDS011;23841;48.524;1.342;2022-09-12T12:31:16;4.57;;;1.25;;
38034;SDS011;23841;48.524;1.342;2022-09-12T12:36:08;1.13;;;0.60;;
38034;SDS011;23841;48.524;1.342;2022-09-12T12:38:38;1.58;;;1.17;;
38034;SDS011;23841;48.524;1.342;2022-09-12T12:43:46;0.90;;;0.60;;
38034;SDS011;23841;48.524;1.342;2022-09-12T12:46:16;1.55;;;0.82;;
38034;SDS011;23841;48.524;1.342;2022-09-12T12:48:48;0.40;;;0.40;;
38034;SDS011;23841;48.524;1.342;2022-09-12T12:51:25;1.73;;;1.00;;
38034;SDS011;23841;48.524;1.342;2022-09-12T12:53:55;0.90;;;0.65;;
38034;SDS011;23841;48.524;1.342;2022-09-12T12:56:31;0.52;;;0.52;;
38034;SDS011;23841;48.524;1.342;2022-09-12T12:59:19;1.85;;;0.82;;
38034;SDS011;23841;48.524;1.342;2022-09-12T13:01:51;1.00;;;0.60;;
38034;SDS011;23841;48.524;1.342;2022-09-12T13:04:24;0.95;;;0.57;;
38034;SDS011;23841;48.524;1.342;2022-09-12T13:07:05;1.95;;;0.90;;
38034;SDS011;23841;48.524;1.342;2022-09-12T13:09:44;1.55;;;0.63;;
38034;SDS011;23841;48.524;1.342;2022-09-12T13:12:26;1.13;;;0.60;;
38034;SDS011;23841;48.524;1.342;2022-09-12T13:14:57;1.90;;;0.82;;
38034;SDS011;23841;48.524;1.342;2022-09-12T13:20:59;2.20;;;0.75;;
38034;SDS011;23841;48.524;1.342;2022-09-12T13:22:54;1.95;;;0.77;;
38034;SDS011;23841;48.524;1.342;2022-09-12T13:25:34;1.55;;;0.50;;
38034;SDS011;23841;48.524;1.342;2022-09-12T13:28:05;1.17;;;0.80;;
38034;SDS011;23841;48.524;1.342;2022-09-12T13:30:38;1.60;;;0.70;;
38034;SDS011;23841;48.524;1.342;2022-09-12T13:39:14;1.03;;;0.73;;
38034;SDS011;23841;48.524;1.342;2022-09-12T13:41:21;1.85;;;0.77;;
38034;SDS011;23841;48.524;1.342;2022-09-12T13:43:49;2.22;;;0.80;;
38034;SDS011;23841;48.524;1.342;2022-09-12T13:46:18;0.93;;;0.60;;
38034;SDS011;23841;48.524;1.342;2022-09-12T13:48:51;0.73;;;0.50;;
38034;SDS011;23841;48.524;1.342;2022-09-12T13:51:20;0.85;;;0.45;;
38034;SDS011;23841;48.524;1.342;2022-09-12T13:53:49;2.45;;;0.45;;
38034;SDS011;23841;48.524;1.342;2022-09-12T13:56:16;0.75;;;0.40;;
38034;SDS011;23841;48.524;1.342;2022-09-12T13:58:53;0.82;;;0.60;;
38034;SDS011;23841;48.524;1.342;2022-09-12T14:01:22;0.85;;;0.50;;
38034;SDS011;23841;48.524;1.342;2022-09-12T14:03:52;1.70;;;0.73;;
38034;SDS011;23841;48.524;1.342;2022-09-12T14:06:42;1.75;;;0.70;;
38034;SDS011;23841;48.524;1.342;2022-09-12T14:09:16;1.20;;;0.80;;
38034;SDS011;23841;48.524;1.342;2022-09-12T14:11:48;2.65;;;0.50;;
38034;SDS011;23841;48.524;1.342;2022-09-12T14:14:27;1.00;;;0.75;;
38034;SDS011;23841;48.524;1.342;2022-09-12T14:16:57;2.50;;;0.52;;
38034;SDS011;23841;48.524;1.342;2022-09-12T14:19:23;2.05;;;0.75;;
38034;SDS011;23841;48.524;1.342;2022-09-12T14:21:53;1.17;;;0.70;;
38034;SDS011;23841;48.524;1.342;2022-09-12T14:24:20;3.47;;;0.70;;
38034;SDS011;23841;48.524;1.342;2022-09-12T14:26:52;0.55;;;0.50;;
38034;SDS011;23841;48.524;1.342;2022-09-12T14:29:20;1.40;;;0.52;;
38034;SDS011;23841;48.524;1.342;2022-09-12T14:31:58;2.67;;;0.70;;
38034;SDS011;23841;48.524;1.342;2022-09-12T14:34:29;5.07;;;0.70;;
38034;SDS011;23841;48.524;1.342;2022-09-12T14:36:54;0.82;;;0.57;;
38034;SDS011;23841;48.524;1.342;2022-09-12T14:41:47;2.08;;;0.80;;
38034;SDS011;23841;48.524;1.342;2022-09-12T14:44:23;2.67;;;0.88;;
38034;SDS011;23841;48.524;1.342;2022-09-12T14:46:50;1.83;;;0.60;;
38034;SDS011;23841;48.524;1.342;2022-09-12T14:51:58;1.38;;;0.60;;
38034;SDS011;23841;48.524;1.342;2022-09-12T14:56:53;1.52;;;0.60;;
38034;SDS011;23841;48.524;1.342;2022-09-12T14:59:51;1.08;;;0.52;;
38034;SDS011;23841;48.524;1.342;2022-09-12T15:04:52;0.40;;;0.40;;
38034;SDS011;23841;48.524;1.342;2022-09-12T15:07:34;1.42;;;0.70;;
38034;SDS011;23841;48.524;1.342;2022-09-12T15:10:49;1.55;;;0.50;;
38034;SDS011;23841;48.524;1.342;2022-09-12T15:15:29;1.25;;;0.60;;
38034;SDS011;23841;48.524;1.342;2022-09-12T15:17:55;0.88;;;0.63;;
38034;SDS011;23841;48.524;1.342;2022-09-12T15:20:20;0.82;;;0.50;;
38034;SDS011;23841;48.524;1.342;2022-09-12T15:22:47;0.80;;;0.45;;
38034;SDS011;23841;48.524;1.342;2022-09-12T15:25:13;2.70;;;0.90;;
38034;SDS011;23841;48.524;1.342;2022-09-12T15:27:38;1.10;;;0.73;;
38034;SDS011;23841;48.524;1.342;2022-09-12T15:30:07;2.85;;;1.00;;
38034;SDS011;23841;48.524;1.342;2022-09-12T15:32:34;1.77;;;0.80;;
38034;SDS011;23841;48.524;1.342;2022-09-12T15:35:00;1.65;;;0.75;;
38034;SDS011;23841;48.524;1.342;2022-09-12T15:37:26;1.92;;;1.13;;
38034;SDS011;23841;48.524;1.342;2022-09-12T15:39:51;4.53;;;0.95;;
38034;SDS011;23841;48.524;1.342;2022-09-12T15:42:17;1.48;;;0.70;;
38034;SDS011;23841;48.524;1.342;2022-09-12T15:44:51;2.35;;;0.93;;
38034;SDS011;23841;48.524;1.342;2022-09-12T15:47:17;1.15;;;0.70;;
38034;SDS011;23841;48.524;1.342;2022-09-12T15:49:43;1.20;;;0.60;;
38034;SDS011;23841;48.524;1.342;2022-09-12T15:52:10;4.25;;;0.93;;
38034;SDS011;23841;48.524;1.342;2022-09-12T15:54:39;2.05;;;1.00;;
38034;SDS011;23841;48.524;1.342;2022-09-12T15:57:05;1.88;;;0.90;;
38034;SDS011;23841;48.524;1.342;2022-09-12T15:59:30;1.73;;;0.75;;
38034;SDS011;23841;48.524;1.342;2022-09-12T16:01:56;2.72;;;0.60;;
38034;SDS011;23841;48.524;1.342;2022-09-12T16:04:23;1.75;;;0.73;;
38034;SDS011;23841;48.524;1.342;2022-09-12T16:06:50;0.80;;;0.70;;
38034;SDS011;23841;48.524;1.342;2022-09-12T16:09:17;0.80;;;0.60;;
38034;SDS011;23841;48.524;1.342;2022-09-12T16:11:44;0.95;;;0.60;;
38034;SDS011;23841;48.524;1.342;2022-09-12T16:14:15;1.02;;;0.73;;
38034;SDS011;23841;48.524;1.342;2022-09-12T16:16:42;3.28;;;0.80;;
38034;SDS011;23841;48.524;1.342;2022-09-12T16:19:08;2.97;;;0.60;;
38034;SDS011;23841;48.524;1.342;2022-09-12T16:21:35;0.85;;;0.75;;
38034;SDS011;23841;48.524;1.342;2022-09-12T16:24:00;2.50;;;0.60;;
38034;SDS011;23841;48.524;1.342;2022-09-12T16:26:26;3.63;;;1.48;;
38034;SDS011;23841;48.524;1.342;2022-09-12T16:28:55;0.73;;;0.50;;
38034;SDS011;23841;48.524;1.342;2022-09-12T16:31:21;0.68;;;0.57;;
38034;SDS011;23841;48.524;1.342;2022-09-12T16:33:47;2.15;;;0.80;;
38034;SDS011;23841;48.524;1.342;2022-09-12T16:36:13;2.90;;;0.63;;
38034;SDS011;23841;48.524;1.342;2022-09-12T16:38:44;0.88;;;0.60;;
38034;SDS011;23841;48.524;1.342;2022-09-12T16:41:17;1.52;;;0.90;;
38034;SDS011;23841;48.524;1.342;2022-09-12T16:43:44;0.82;;;0.65;;
38034;SDS011;23841;48.524;1.342;2022-09-12T16:46:14;1.05;;;0.57;;
38034;SDS011;23841;48.524;1.342;2022-09-12T16:48:44;1.02;;;0.70;;
38034;SDS011;23841;48.524;1.342;2022-09-12T16:51:13;1.80;;;0.80;;
38034;SDS011;23841;48.524;1.342;2022-09-12T16:53:40;1.58;;;0.73;;
38034;SDS011;23841;48.524;1.342;2022-09-12T16:56:06;1.02;;;0.75;;
38034;SDS011;23841;48.524;1.342;2022-09-12T16:58:33;4.05;;;0.75;;
38034;SDS011;23841;48.524;1.342;2022-09-12T17:01:04;0.68;;;0.50;;
38034;SDS011;23841;48.524;1.342;2022-09-12T17:03:40;1.10;;;0.60;;
38034;SDS011;23841;48.524;1.342;2022-09-12T17:06:10;0.90;;;0.68;;
38034;SDS011;23841;48.524;1.342;2022-09-12T17:08:41;1.42;;;0.70;;
38034;SDS011;23841;48.524;1.342;2022-09-12T17:11:11;0.50;;;0.50;;
38034;SDS011;23841;48.524;1.342;2022-09-12T17:13:39;2.65;;;0.60;;
38034;SDS011;23841;48.524;1.342;2022-09-12T17:16:05;0.45;;;0.40;;
38034;SDS011;23841;48.524;1.342;2022-09-12T17:18:34;0.63;;;0.50;;
38034;SDS011;23841;48.524;1.342;2022-09-12T17:21:00;0.70;;;0.50;;
38034;SDS011;23841;48.524;1.342;2022-09-12T17:23:25;0.80;;;0.63;;
38034;SDS011;23841;48.524;1.342;2022-09-12T17:25:51;0.95;;;0.50;;
38034;SDS011;23841;48.524;1.342;2022-09-12T17:28:18;2.05;;;0.70;;
38034;SDS011;23841;48.524;1.342;2022-09-12T17:30:44;1.00;;;0.60;;
38034;SDS011;23841;48.524;1.342;2022-09-12T17:33:10;1.90;;;0.70;;
38034;SDS011;23841;48.524;1.342;2022-09-12T17:35:36;1.30;;;0.65;;
38034;SDS011;23841;48.524;1.342;2022-09-12T17:38:02;1.17;;;0.60;;
38034;SDS011;23841;48.524;1.342;2022-09-12T17:40:28;1.27;;;0.68;;
38034;SDS011;23841;48.524;1.342;2022-09-12T17:42:54;2.15;;;0.90;;
38034;SDS011;23841;48.524;1.342;2022-09-12T17:45:20;0.60;;;0.50;;
38034;SDS011;23841;48.524;1.342;2022-09-12T17:47:46;1.42;;;0.88;;
38034;SDS011;23841;48.524;1.342;2022-09-12T17:50:11;2.90;;;0.65;;
38034;SDS011;23841;48.524;1.342;2022-09-12T17:52:36;0.88;;;0.60;;